Time;durP1;ratioP1;P1;durP2;ratioP2;P2;SDS_P1;SDS_P2;PMS_P1;PMS_P2;Temp;Humidity;BMP_temperature;BMP_pressure;BME280_temperature;BME280_humidity;BME280_pressure;Samples;Min_cycle;Max_cycle;Signal;HPM_P1;HPM_P2
2021/04/20 00:03:36;;;;;;;19.47;10.83;;;;;;;;;;10283931;28;20202;-74
2021/04/20 00:08:38;;;;;;;18.53;10.37;;;;;;;;;;10287556;28;20188;-74
2021/04/20 00:13:41;;;;;;;18.97;11.27;;;;;;;;;;10282460;28;20247;-74
2021/04/20 00:18:43;;;;;;;19.00;11.80;;;;;;;;;;10286568;28;20242;-74
2021/04/20 00:23:45;;;;;;;21.10;11.67;;;;;;;;;;10281525;28;20255;-74
2021/04/20 00:28:48;;;;;;;23.03;12.23;;;;;;;;;;10281549;28;20296;-72
2021/04/20 00:33:49;;;;;;;19.03;11.47;;;;;;;;;;10282366;28;20294;-73
2021/04/20 00:38:51;;;;;;;20.23;11.80;;;;;;;;;;10282094;28;20239;-74
2021/04/20 00:43:53;;;;;;;21.77;12.10;;;;;;;;;;10286737;28;20187;-75
2021/04/20 00:48:55;;;;;;;19.43;11.50;;;;;;;;;;10279736;28;20231;-76
2021/04/20 00:53:57;;;;;;;22.33;13.53;;;;;;;;;;10284752;28;20203;-75
2021/04/20 00:58:59;;;;;;;21.33;12.93;;;;;;;;;;10279783;28;20311;-74
2021/04/20 01:04:01;;;;;;;22.83;14.17;;;;;;;;;;10281957;28;20696;-75
2021/04/20 01:09:04;;;;;;;23.10;13.83;;;;;;;;;;10273326;28;20258;-75
2021/04/20 01:14:07;;;;;;;21.73;13.63;;;;;;;;;;10270187;28;20277;-74
2021/04/20 01:19:09;;;;;;;24.13;14.50;;;;;;;;;;10280745;28;20303;-73
2021/04/20 01:24:28;;;;;;;21.03;13.97;;;;;;;;;;10283724;28;20739;-73
2021/04/20 01:29:30;;;;;;;22.27;13.30;;;;;;;;;;10289345;28;20699;-75
2021/04/20 01:34:32;;;;;;;23.67;13.30;;;;;;;;;;10282792;28;20196;-75
2021/04/20 01:39:33;;;;;;;24.43;14.97;;;;;;;;;;10285629;28;20286;-74
2021/04/20 01:44:36;;;;;;;24.47;14.57;;;;;;;;;;10280019;28;20210;-74
2021/04/20 01:49:38;;;;;;;26.23;14.83;;;;;;;;;;10281605;28;20334;-74
2021/04/20 01:54:40;;;;;;;25.73;16.43;;;;;;;;;;10276960;28;20246;-74
2021/04/20 01:59:42;;;;;;;25.03;14.47;;;;;;;;;;10281235;28;20242;-74
2021/04/20 02:04:44;;;;;;;26.97;15.50;;;;;;;;;;10281770;28;20196;-75
2021/04/20 02:09:46;;;;;;;23.07;14.00;;;;;;;;;;10278949;28;20294;-74
2021/04/20 02:14:48;;;;;;;26.53;15.87;;;;;;;;;;10282311;28;20216;-75
2021/04/20 02:19:50;;;;;;;25.47;15.17;;;;;;;;;;10275243;28;20219;-74
2021/04/20 02:24:51;;;;;;;26.73;16.37;;;;;;;;;;10284185;28;20627;-75
2021/04/20 02:29:57;;;;;;;25.17;16.13;;;;;;;;;;10278090;28;20222;-75
2021/04/20 02:34:59;;;;;;;26.07;16.20;;;;;;;;;;10281846;28;20686;-75
2021/04/20 02:40:01;;;;;;;27.50;17.00;;;;;;;;;;10282409;28;20279;-75
2021/04/20 02:45:05;;;;;;;29.50;17.07;;;;;;;;;;10277870;28;20192;-76
2021/04/20 02:50:08;;;;;;;29.97;17.50;;;;;;;;;;10277002;28;20230;-75
2021/04/20 02:55:11;;;;;;;27.23;16.93;;;;;;;;;;10278305;28;20220;-76
2021/04/20 03:00:15;;;;;;;30.50;17.80;;;;;;;;;;10272301;28;20230;-75
2021/04/20 03:05:18;;;;;;;26.73;16.43;;;;;;;;;;10276317;28;20278;-76
2021/04/20 03:10:20;;;;;;;29.83;18.57;;;;;;;;;;10278634;28;20346;-76
2021/04/20 03:15:23;;;;;;;30.73;18.43;;;;;;;;;;10281319;28;20229;-75
2021/04/20 03:20:25;;;;;;;29.73;18.37;;;;;;;;;;10292539;28;20872;-75
2021/04/20 03:25:27;;;;;;;30.63;17.90;;;;;;;;;;10293283;28;20198;-75
2021/04/20 03:30:30;;;;;;;32.53;18.50;;;;;;;;;;10295640;28;20310;-74
2021/04/20 03:35:35;;;;;;;31.30;19.80;;;;;;;;;;10283717;28;20565;-74
2021/04/20 03:40:38;;;;;;;31.70;19.57;;;;;;;;;;10292162;28;21943;-74
2021/04/20 03:45:44;;;;;;;33.30;17.37;;;;;;;;;;10291897;28;20255;-75
2021/04/20 03:50:52;;;;;;;34.30;19.50;;;;;;;;;;10291792;28;20302;-75
2021/04/20 03:55:54;;;;;;;32.00;18.10;;;;;;;;;;10292924;28;20288;-75
2021/04/20 04:01:00;;;;;;;30.10;18.97;;;;;;;;;;10289131;28;20303;-75
2021/04/20 04:06:02;;;;;;;32.23;18.60;;;;;;;;;;10292851;28;20191;-73
2021/04/20 04:11:04;;;;;;;33.17;20.33;;;;;;;;;;10288971;28;20322;-74
2021/04/20 04:16:07;;;;;;;32.13;19.27;;;;;;;;;;10288727;28;20290;-73
2021/04/20 04:21:09;;;;;;;30.97;18.43;;;;;;;;;;10290847;28;20219;-74
2021/04/20 04:26:12;;;;;;;32.23;19.03;;;;;;;;;;10289397;28;20202;-75
2021/04/20 04:31:15;;;;;;;33.40;20.07;;;;;;;;;;10281623;28;20235;-74
2021/04/20 04:36:17;;;;;;;29.80;17.60;;;;;;;;;;10277829;28;20226;-74
2021/04/20 04:41:19;;;;;;;31.17;18.97;;;;;;;;;;10286294;28;20211;-72
2021/04/20 04:46:22;;;;;;;30.67;18.03;;;;;;;;;;10281969;28;20274;-73
2021/04/20 04:51:24;;;;;;;29.60;18.87;;;;;;;;;;10285440;28;20215;-75
2021/04/20 04:56:26;;;;;;;31.27;19.33;;;;;;;;;;10285666;28;20273;-76
2021/04/20 05:01:29;;;;;;;31.53;18.90;;;;;;;;;;10281130;28;20212;-75
2021/04/20 05:06:31;;;;;;;33.00;19.10;;;;;;;;;;10287423;28;20665;-75
2021/04/20 05:11:34;;;;;;;31.00;19.67;;;;;;;;;;10283322;28;20236;-75
2021/04/20 05:16:36;;;;;;;31.27;18.43;;;;;;;;;;10286658;28;20295;-74
2021/04/20 05:21:38;;;;;;;29.47;17.73;;;;;;;;;;10278593;28;20222;-74
2021/04/20 05:26:40;;;;;;;31.23;18.70;;;;;;;;;;10270966;28;20745;-75
2021/04/20 05:31:43;;;;;;;29.67;18.27;;;;;;;;;;10265007;28;20291;-75
2021/04/20 05:36:47;;;;;;;31.23;18.40;;;;;;;;;;10264830;28;20284;-73
2021/04/20 05:41:48;;;;;;;29.10;16.57;;;;;;;;;;10275886;28;20251;-75
2021/04/20 05:46:50;;;;;;;30.93;18.57;;;;;;;;;;10280849;28;20230;-75
2021/04/20 05:51:52;;;;;;;23.63;14.03;;;;;;;;;;10270098;28;20727;-72
2021/04/20 05:56:54;;;;;;;27.63;15.87;;;;;;;;;;10253788;28;20697;-76
2021/04/20 06:01:56;;;;;;;26.67;15.60;;;;;;;;;;10273219;28;20707;-73
2021/04/20 06:06:58;;;;;;;25.07;15.83;;;;;;;;;;10270903;28;20197;-73
2021/04/20 06:12:00;;;;;;;28.53;17.43;;;;;;;;;;10274337;28;20290;-74
2021/04/20 06:17:02;;;;;;;25.90;16.50;;;;;;;;;;10275014;28;20710;-74
2021/04/20 06:22:05;;;;;;;27.17;16.57;;;;;;;;;;10270389;28;20671;-75
2021/04/20 06:27:07;;;;;;;26.13;15.47;;;;;;;;;;10278259;28;20290;-73
2021/04/20 06:32:10;;;;;;;24.53;15.23;;;;;;;;;;10269764;28;20314;-75
2021/04/20 06:37:12;;;;;;;24.50;15.70;;;;;;;;;;10280732;28;20652;-74
2021/04/20 06:42:18;;;;;;;25.67;16.10;;;;;;;;;;10284194;28;20585;-74
2021/04/20 06:47:22;;;;;;;24.57;15.30;;;;;;;;;;10274869;28;20188;-75
2021/04/20 06:52:27;;;;;;;23.83;15.20;;;;;;;;;;10270752;28;20440;-74
2021/04/20 06:57:33;;;;;;;23.83;14.80;;;;;;;;;;10269358;28;20255;-75
2021/04/20 07:02:41;;;;;;;27.70;15.90;;;;;;;;;;10270014;28;20223;-74
2021/04/20 07:07:54;;;;;;;25.20;15.33;;;;;;;;;;10268206;28;20723;-75
2021/04/20 07:12:58;;;;;;;25.90;16.10;;;;;;;;;;10268861;28;20314;-75
2021/04/20 07:18:20;;;;;;;23.27;14.70;;;;;;;;;;10266904;28;20625;-75
2021/04/20 07:23:27;;;;;;;23.47;14.93;;;;;;;;;;10273395;28;20236;-75
2021/04/20 07:28:31;;;;;;;22.90;14.43;;;;;;;;;;10269770;28;20270;-76
2021/04/20 07:33:48;;;;;;;21.47;13.80;;;;;;;;;;10265328;28;20585;-74
2021/04/20 07:38:55;;;;;;;23.50;14.50;;;;;;;;;;10271875;28;20227;-74
2021/04/20 07:44:12;;;;;;;23.07;14.27;;;;;;;;;;10273613;28;20575;-75
2021/04/20 07:49:17;;;;;;;22.83;14.70;;;;;;;;;;10237118;28;20421;-75
2021/04/20 07:54:22;;;;;;;22.37;14.40;;;;;;;;;;10255952;28;20295;-74
2021/04/20 07:59:30;;;;;;;25.37;14.97;;;;;;;;;;10262725;28;20220;-73
2021/04/20 08:04:41;;;;;;;24.87;14.73;;;;;;;;;;10265808;28;20200;-75
2021/04/20 08:09:46;;;;;;;21.27;13.07;;;;;;;;;;10269921;28;20212;-75
2021/04/20 08:14:50;;;;;;;20.87;13.47;;;;;;;;;;10280090;28;20625;-74
2021/04/20 08:19:55;;;;;;;21.40;14.80;;;;;;;;;;10270101;28;20223;-76
2021/04/20 08:25:00;;;;;;;21.60;13.50;;;;;;;;;;10260122;28;20195;-76
2021/04/20 08:30:04;;;;;;;19.70;13.07;;;;;;;;;;10277283;28;20683;-76
2021/04/20 08:35:11;;;;;;;20.43;12.67;;;;;;;;;;10281919;28;20525;-76
2021/04/20 08:40:19;;;;;;;21.90;13.50;;;;;;;;;;10277869;28;20223;-75
2021/04/20 08:45:40;;;;;;;21.17;12.90;;;;;;;;;;10284737;28;20341;-76
2021/04/20 08:50:50;;;;;;;18.90;12.60;;;;;;;;;;10277432;28;20230;-76
2021/04/20 08:55:57;;;;;;;20.87;13.30;;;;;;;;;;10280505;28;20200;-74
2021/04/20 09:01:03;;;;;;;18.77;12.37;;;;;;;;;;10283659;28;20223;-75
2021/04/20 09:06:08;;;;;;;18.73;12.07;;;;;;;;;;10283587;28;20246;-74
2021/04/20 09:11:10;;;;;;;19.60;12.77;;;;;;;;;;10283909;28;20255;-75
2021/04/20 09:16:13;;;;;;;19.40;12.70;;;;;;;;;;10278763;28;20223;-76
2021/04/20 09:21:23;;;;;;;18.20;12.07;;;;;;;;;;10282342;28;20231;-75
2021/04/20 09:26:30;;;;;;;20.20;13.37;;;;;;;;;;10280817;28;20287;-73
2021/04/20 09:31:35;;;;;;;18.77;11.97;;;;;;;;;;10279137;28;20235;-74
2021/04/20 09:36:39;;;;;;;20.40;12.60;;;;;;;;;;10282536;28;20223;-74
2021/04/20 09:41:42;;;;;;;18.37;12.20;;;;;;;;;;10274339;28;20303;-72
2021/04/20 09:46:49;;;;;;;21.43;14.23;;;;;;;;;;10295560;28;20192;-73
2021/04/20 09:51:53;;;;;;;18.17;12.43;;;;;;;;;;10276080;28;20212;-72
2021/04/20 09:56:56;;;;;;;18.77;12.63;;;;;;;;;;10279981;28;20204;-73
2021/04/20 10:02:22;;;;;;;18.50;11.37;;;;;;;;;;10279408;28;20216;-72
2021/04/20 10:07:38;;;;;;;17.80;11.90;;;;;;;;;;10274302;28;20195;-72
2021/04/20 10:12:49;;;;;;;18.23;12.03;;;;;;;;;;10278391;28;20231;-73
2021/04/20 10:17:57;;;;;;;18.70;12.07;;;;;;;;;;10268875;28;20211;-73
2021/04/20 10:23:03;;;;;;;19.00;12.87;;;;;;;;;;10275578;28;20330;-72
2021/04/20 10:28:10;;;;;;;17.97;12.43;;;;;;;;;;10274753;28;20223;-72
2021/04/20 10:33:13;;;;;;;17.83;12.20;;;;;;;;;;10273825;28;20258;-73
2021/04/20 10:38:16;;;;;;;18.73;12.87;;;;;;;;;;10279211;28;20219;-73
2021/04/20 10:43:19;;;;;;;18.20;12.67;;;;;;;;;;10279946;28;20264;-71
2021/04/20 10:48:22;;;;;;;17.97;12.00;;;;;;;;;;10274898;28;20196;-73
2021/04/20 10:53:26;;;;;;;18.33;12.07;;;;;;;;;;10274919;28;20220;-71
2021/04/20 10:58:29;;;;;;;18.37;12.13;;;;;;;;;;10279154;28;20231;-72
2021/04/20 11:03:32;;;;;;;17.27;12.30;;;;;;;;;;10277394;28;20676;-72
2021/04/20 11:08:38;;;;;;;16.13;11.10;;;;;;;;;;10281300;28;20250;-71
2021/04/20 11:13:41;;;;;;;17.27;11.67;;;;;;;;;;10281397;28;20648;-72
2021/04/20 11:18:44;;;;;;;15.67;10.93;;;;;;;;;;10278257;28;20306;-73
2021/04/20 11:23:53;;;;;;;20.33;11.07;;;;;;;;;;10283979;28;20221;-71
2021/04/20 11:28:56;;;;;;;17.17;11.23;;;;;;;;;;10277345;28;20719;-73
2021/04/20 11:34:01;;;;;;;17.57;10.83;;;;;;;;;;10280931;28;20208;-72
2021/04/20 11:39:05;;;;;;;16.47;10.00;;;;;;;;;;10280103;28;20600;-72
2021/04/20 11:44:08;;;;;;;17.10;10.77;;;;;;;;;;10286417;28;20205;-73
2021/04/20 11:49:12;;;;;;;16.37;10.67;;;;;;;;;;10280543;28;20215;-73
2021/04/20 11:54:19;;;;;;;16.70;10.50;;;;;;;;;;10277053;28;20304;-72
2021/04/20 11:59:21;;;;;;;16.90;10.57;;;;;;;;;;10278393;28;20302;-73
2021/04/20 12:04:26;;;;;;;15.30;9.53;;;;;;;;;;10280836;28;20203;-73
2021/04/20 12:09:32;;;;;;;15.43;9.60;;;;;;;;;;10281359;28;20291;-72
2021/04/20 12:14:35;;;;;;;13.83;9.80;;;;;;;;;;10281349;28;20224;-74
2021/04/20 12:19:37;;;;;;;13.60;9.47;;;;;;;;;;10278263;28;20726;-73
2021/04/20 12:24:41;;;;;;;15.53;10.23;;;;;;;;;;10284054;28;20195;-71
2021/04/20 12:29:43;;;;;;;14.27;9.67;;;;;;;;;;10280247;28;20212;-73
2021/04/20 12:34:53;;;;;;;14.17;9.57;;;;;;;;;;10276795;28;20199;-72
2021/04/20 12:39:58;;;;;;;13.23;9.40;;;;;;;;;;10279610;28;20221;-73
2021/04/20 12:45:05;;;;;;;14.23;9.70;;;;;;;;;;10280315;28;20258;-73
2021/04/20 12:50:08;;;;;;;13.33;8.87;;;;;;;;;;10274940;28;20315;-73
2021/04/20 12:55:12;;;;;;;16.20;9.43;;;;;;;;;;10275064;28;20238;-73
2021/04/20 13:00:17;;;;;;;12.87;8.30;;;;;;;;;;10279713;28;20227;-73
2021/04/20 13:05:20;;;;;;;14.23;8.23;;;;;;;;;;10282236;28;20211;-72
2021/04/20 13:10:23;;;;;;;13.97;8.67;;;;;;;;;;10285868;28;20229;-73
2021/04/20 13:15:26;;;;;;;13.40;8.13;;;;;;;;;;10282861;28;20204;-72
2021/04/20 13:20:29;;;;;;;14.10;8.90;;;;;;;;;;10277233;28;20308;-73
2021/04/20 13:25:32;;;;;;;12.73;7.67;;;;;;;;;;10277105;28;20612;-73
2021/04/20 13:30:34;;;;;;;13.27;7.87;;;;;;;;;;10282000;28;20228;-73
2021/04/20 13:35:36;;;;;;;11.70;7.33;;;;;;;;;;10281621;28;20196;-69
2021/04/20 13:40:39;;;;;;;11.67;6.83;;;;;;;;;;10285431;28;20322;-72
2021/04/20 13:45:41;;;;;;;12.10;8.00;;;;;;;;;;10284306;28;20192;-72
2021/04/20 13:50:43;;;;;;;13.30;8.60;;;;;;;;;;10270653;28;20212;-71
2021/04/20 13:55:46;;;;;;;12.30;8.20;;;;;;;;;;10280767;28;20295;-73
2021/04/20 14:00:51;;;;;;;12.87;7.77;;;;;;;;;;10270636;28;20217;-72
2021/04/20 14:05:54;;;;;;;12.90;8.47;;;;;;;;;;10279076;28;20194;-72
2021/04/20 14:10:57;;;;;;;12.47;8.40;;;;;;;;;;10275212;28;20274;-70
2021/04/20 14:48:14;;;;;;;12.83;7.73;;;;;;;;;;10575170;27;20877;-71
2021/04/20 14:53:19;;;;;;;12.67;6.93;;;;;;;;;;10568822;27;20554;-70
2021/04/20 14:58:24;;;;;;;12.10;7.80;;;;;;;;;;10537925;28;20195;-71
2021/04/20 15:03:27;;;;;;;13.40;8.77;;;;;;;;;;10528711;28;20220;-71
2021/04/20 15:08:33;;;;;;;12.27;7.37;;;;;;;;;;10525536;28;20292;-71
2021/04/20 15:13:40;;;;;;;11.27;7.10;;;;;;;;;;10520194;28;20188;-69
2021/04/20 15:18:44;;;;;;;13.43;8.43;;;;;;;;;;10525671;28;20712;-68
2021/04/20 15:23:49;;;;;;;13.07;7.53;;;;;;;;;;10559682;28;20271;-71
2021/04/20 15:28:56;;;;;;;11.97;7.67;;;;;;;;;;10540711;28;20527;-72
2021/04/20 15:34:00;;;;;;;12.97;8.50;;;;;;;;;;10545648;28;20204;-70
2021/04/20 15:39:03;;;;;;;13.50;9.00;;;;;;;;;;10539113;28;20235;-71
2021/04/20 15:44:06;;;;;;;14.17;9.63;;;;;;;;;;10550732;28;20231;-70
2021/04/20 15:49:12;;;;;;;16.77;10.33;;;;;;;;;;10548591;28;20587;-71
2021/04/20 15:54:16;;;;;;;16.37;10.70;;;;;;;;;;10522795;28;20211;-72
2021/04/20 15:59:20;;;;;;;17.53;11.03;;;;;;;;;;10490242;28;20223;-71
2021/04/20 16:04:26;;;;;;;15.07;10.07;;;;;;;;;;10486918;28;20581;-71
2021/04/20 16:09:28;;;;;;;15.20;10.50;;;;;;;;;;10489875;28;20220;-70
2021/04/20 16:14:30;;;;;;;16.73;10.60;;;;;;;;;;10490512;28;20242;-71
2021/04/20 16:19:33;;;;;;;15.43;10.50;;;;;;;;;;10480489;28;20223;-71
2021/04/20 16:24:36;;;;;;;17.43;10.30;;;;;;;;;;10481833;28;20208;-70
2021/04/20 16:29:40;;;;;;;16.40;10.63;;;;;;;;;;10478974;28;20244;-70
2021/04/20 16:34:44;;;;;;;17.63;11.23;;;;;;;;;;10484070;28;20188;-71
2021/04/20 16:39:52;;;;;;;17.83;12.17;;;;;;;;;;10490866;28;20220;-70
2021/04/20 16:44:59;;;;;;;20.27;13.43;;;;;;;;;;10483605;28;20223;-70
2021/04/20 16:50:14;;;;;;;19.37;13.43;;;;;;;;;;10488274;28;20256;-74
2021/04/20 16:55:18;;;;;;;19.17;12.50;;;;;;;;;;10490292;28;20240;-68
2021/04/20 17:00:27;;;;;;;18.00;12.77;;;;;;;;;;10493615;28;20667;-70
2021/04/20 17:05:32;;;;;;;18.73;12.73;;;;;;;;;;10486310;28;20688;-70
2021/04/20 17:10:40;;;;;;;18.80;12.20;;;;;;;;;;10477178;28;20216;-70
2021/04/20 17:15:47;;;;;;;20.00;13.90;;;;;;;;;;10484259;28;20204;-68
2021/04/20 17:21:06;;;;;;;19.97;12.50;;;;;;;;;;10482705;28;20231;-69
2021/04/20 17:26:12;;;;;;;19.70;12.83;;;;;;;;;;10489151;28;20212;-70
2021/04/20 17:31:21;;;;;;;18.57;12.23;;;;;;;;;;10488220;28;20643;-68
2021/04/20 17:36:30;;;;;;;19.00;11.97;;;;;;;;;;10489096;28;20275;-71
2021/04/20 17:41:35;;;;;;;17.97;11.13;;;;;;;;;;10502147;28;20327;-70
2021/04/20 17:46:40;;;;;;;17.93;12.03;;;;;;;;;;10501689;28;20326;-70
2021/04/20 17:51:55;;;;;;;18.30;12.20;;;;;;;;;;10506372;28;20335;-71
2021/04/20 17:57:01;;;;;;;19.23;10.97;;;;;;;;;;10500031;28;20275;-70
2021/04/20 18:02:06;;;;;;;18.80;11.63;;;;;;;;;;10488571;28;20595;-72
2021/04/20 18:07:12;;;;;;;20.85;14.18;;;;;;;;;;10482499;28;20545;-71
2021/04/20 18:12:34;;;;;;;21.93;13.10;;;;;;;;;;10522314;28;20231;-70
2021/04/20 18:17:47;;;;;;;19.53;12.27;;;;;;;;;;10489513;28;20260;-69
2021/04/20 18:23:05;;;;;;;18.63;12.60;;;;;;;;;;10489115;28;20303;-71
2021/04/20 18:28:13;;;;;;;21.80;13.20;;;;;;;;;;10489691;28;20212;-70
2021/04/20 18:33:29;;;;;;;22.43;13.40;;;;;;;;;;10485852;28;20204;-70
2021/04/20 18:38:38;;;;;;;21.87;13.77;;;;;;;;;;10489443;28;20560;-70
2021/04/20 18:43:50;;;;;;;22.90;14.17;;;;;;;;;;10496492;28;20200;-71
2021/04/20 18:48:57;;;;;;;22.60;13.53;;;;;;;;;;10499586;28;20196;-71
2021/04/20 18:54:08;;;;;;;22.20;13.83;;;;;;;;;;10501943;28;20215;-72
2021/04/20 18:59:24;;;;;;;21.73;13.63;;;;;;;;;;10502796;28;20287;-70
2021/04/20 19:04:34;;;;;;;22.33;13.70;;;;;;;;;;10506164;28;20291;-71
2021/04/20 19:09:41;;;;;;;24.20;14.47;;;;;;;;;;10501603;28;20747;-70
2021/04/20 19:14:57;;;;;;;21.63;13.97;;;;;;;;;;10500424;28;20192;-71
2021/04/20 19:20:02;;;;;;;22.73;14.07;;;;;;;;;;10493190;28;20215;-69
2021/04/20 19:25:06;;;;;;;22.37;14.30;;;;;;;;;;10481234;28;20232;-70
2021/04/20 19:30:09;;;;;;;22.63;13.73;;;;;;;;;;10485239;28;20239;-71
2021/04/20 19:35:22;;;;;;;21.73;13.50;;;;;;;;;;10490651;28;20230;-69
2021/04/20 19:40:38;;;;;;;22.63;14.47;;;;;;;;;;10505930;28;20342;-70
2021/04/20 19:45:51;;;;;;;22.53;15.10;;;;;;;;;;10502676;28;20350;-71
2021/04/20 19:50:59;;;;;;;26.53;15.87;;;;;;;;;;10496932;28;20223;-70
2021/04/20 19:56:01;;;;;;;25.23;15.23;;;;;;;;;;10488258;28;20631;-70
2021/04/20 20:01:03;;;;;;;25.33;15.53;;;;;;;;;;10490103;28;20342;-70
2021/04/20 20:06:08;;;;;;;27.60;16.50;;;;;;;;;;10487423;28;20215;-69
2021/04/20 20:11:11;;;;;;;28.23;16.57;;;;;;;;;;10489481;28;20690;-70
2021/04/20 20:16:20;;;;;;;26.42;19.55;;;;;;;;;;10477365;28;20919;-72
2021/04/20 20:21:25;;;;;;;27.57;16.27;;;;;;;;;;10486155;28;20621;-69
2021/04/20 20:26:27;;;;;;;26.50;15.73;;;;;;;;;;10487688;28;20710;-69
2021/04/20 20:31:29;;;;;;;25.87;15.87;;;;;;;;;;10487846;28;20254;-70
2021/04/20 20:36:32;;;;;;;25.13;16.60;;;;;;;;;;10491880;28;20532;-69
2021/04/20 20:41:35;;;;;;;27.17;16.57;;;;;;;;;;10484517;28;20213;-70
2021/04/20 20:46:37;;;;;;;25.17;15.53;;;;;;;;;;10485733;28;20216;-70
2021/04/20 20:51:40;;;;;;;24.67;15.93;;;;;;;;;;10487959;28;20318;-71
2021/04/20 20:56:44;;;;;;;26.00;15.53;;;;;;;;;;10491269;28;20192;-69
2021/04/20 21:01:46;;;;;;;23.17;16.00;;;;;;;;;;10485904;28;20212;-68
2021/04/20 21:06:49;;;;;;;27.67;16.60;;;;;;;;;;10482198;28;20592;-71
2021/04/20 21:11:52;;;;;;;28.20;17.20;;;;;;;;;;10488306;28;20310;-71
2021/04/20 21:16:56;;;;;;;22.80;13.67;;;;;;;;;;10482039;28;20195;-70
2021/04/20 21:21:59;;;;;;;26.57;15.57;;;;;;;;;;10489661;28;20210;-70
2021/04/20 21:27:03;;;;;;;24.73;15.47;;;;;;;;;;10486405;28;20415;-70
2021/04/20 21:32:06;;;;;;;25.73;16.70;;;;;;;;;;10485292;28;20214;-70
2021/04/20 21:37:09;;;;;;;24.70;15.53;;;;;;;;;;10482508;28;20451;-69
2021/04/20 21:42:13;;;;;;;26.57;16.57;;;;;;;;;;10486170;28;20220;-69
2021/04/20 21:47:16;;;;;;;24.93;15.00;;;;;;;;;;10486862;28;20216;-71
2021/04/20 21:52:19;;;;;;;24.53;15.30;;;;;;;;;;10484248;28;20607;-71
2021/04/20 21:57:30;;;;;;;26.67;15.20;;;;;;;;;;10493553;28;20188;-68
2021/04/20 22:02:32;;;;;;;24.40;14.90;;;;;;;;;;10483616;28;20220;-71
2021/04/20 22:07:41;;;;;;;26.13;15.33;;;;;;;;;;10482584;28;20707;-71
2021/04/20 22:12:46;;;;;;;27.67;16.40;;;;;;;;;;10485779;28;20228;-70
2021/04/20 22:17:50;;;;;;;27.67;15.43;;;;;;;;;;10479002;28;20265;-71
2021/04/20 22:22:51;;;;;;;25.03;14.77;;;;;;;;;;10484923;28;20204;-71
2021/04/20 22:27:56;;;;;;;26.40;15.43;;;;;;;;;;10485048;28;20579;-70
2021/04/20 22:33:01;;;;;;;26.17;15.27;;;;;;;;;;10483861;28;20246;-71
2021/04/20 22:38:17;;;;;;;26.23;15.23;;;;;;;;;;10484509;28;20482;-69
2021/04/20 22:43:21;;;;;;;27.07;15.27;;;;;;;;;;10483825;28;20216;-68
2021/04/20 22:48:23;;;;;;;23.87;14.07;;;;;;;;;;10484043;28;20209;-70
2021/04/20 22:53:27;;;;;;;26.60;14.93;;;;;;;;;;10481228;28;20240;-70
2021/04/20 22:58:31;;;;;;;27.00;15.73;;;;;;;;;;10486932;28;20632;-70
2021/04/20 23:03:33;;;;;;;28.47;16.40;;;;;;;;;;10478824;28;20683;-69
2021/04/20 23:08:37;;;;;;;25.50;14.40;;;;;;;;;;10491631;28;20756;-67
2021/04/20 23:13:42;;;;;;;26.23;15.87;;;;;;;;;;10491926;28;20196;-70
2021/04/20 23:18:45;;;;;;;27.77;15.73;;;;;;;;;;10480097;28;20250;-69
2021/04/20 23:23:50;;;;;;;24.40;14.33;;;;;;;;;;10488492;28;20192;-70
2021/04/20 23:29:02;;;;;;;22.83;14.10;;;;;;;;;;10489426;28;20568;-70
2021/04/20 23:34:04;;;;;;;27.33;15.83;;;;;;;;;;10486660;28;20192;-70
2021/04/20 23:39:08;;;;;;;23.93;14.20;;;;;;;;;;10492098;28;20427;-69
2021/04/20 23:44:13;;;;;;;22.13;12.13;;;;;;;;;;10488241;28;20265;-68
2021/04/20 23:49:15;;;;;;;25.10;14.60;;;;;;;;;;10487535;28;20239;-70
2021/04/20 23:54:18;;;;;;;21.57;13.23;;;;;;;;;;10488600;28;20222;-70
2021/04/20 23:59:22;;;;;;;22.90;14.23;;;;;;;;;;10493292;28;20212;-71
